Wickwar, United Kingdom
Current Conditions -  °F | °C
As of 6:20 AM on Wednesday 28 Jan 2015 (Local Time) from EGGD Reporting Station
Light Rain Light Rain  
Wind Chill: 40°   Ceiling: 300
Heat Index: 46°   Visibility: 1.2mi
Dew Point: 45°   Wind: 14mph
Humidity: 93%   Direction: 220°SW
Pressure: 29.77"   Gusts: NA
Location:  51.59°N, 2.4°W
Report Text: EGGD 280620Z 22012KT 2000 -RA BKN003 08/07 Q1008
Loading
Personal Weather Stations






























Interactive Weather Map New forecast layout! Learn more

10-Day Weather Forecast

Advertisements
Track Severe Weather on mobile